createdAt,value
2022-08-25T00:03:21.926Z,3.08
2022-08-25T00:11:03.485Z,3.03
2022-08-25T00:15:09.701Z,2.97
2022-08-25T00:18:25.925Z,3.30
2022-08-25T00:47:31.355Z,2.95
2022-08-25T00:50:38.140Z,3.30
2022-08-25T00:54:31.439Z,3.00
2022-08-25T01:04:03.130Z,2.90
2022-08-25T01:07:51.729Z,2.78
2022-08-25T01:42:39.682Z,3.20
2022-08-25T01:46:24.270Z,2.95
2022-08-25T01:53:39.231Z,2.95
2022-08-25T01:57:05.434Z,3.25
2022-08-25T01:59:37.623Z,3.33
2022-08-25T02:05:09.976Z,3.20
2022-08-25T02:12:05.782Z,3.08
2022-08-25T02:14:44.287Z,3.30
2022-08-25T02:17:17.644Z,3.63
2022-08-25T02:19:59.240Z,3.38
2022-08-25T02:22:43.453Z,3.00
2022-08-25T02:25:43.485Z,3.05
2022-08-25T02:28:53.802Z,2.80
2022-08-25T02:31:36.565Z,2.95
2022-08-25T02:34:05.811Z,3.22
2022-08-25T02:37:05.576Z,3.30
2022-08-25T02:39:47.909Z,2.95
2022-08-25T02:42:18.640Z,3.20
2022-08-25T02:44:48.991Z,3.20
2022-08-25T02:47:40.690Z,3.20
2022-08-25T02:50:19.167Z,3.20
2022-08-25T02:52:53.097Z,3.33
2022-08-25T02:55:28.657Z,3.15
2022-08-25T02:57:57.323Z,3.08
2022-08-25T03:00:29.186Z,3.42
2022-08-25T03:03:00.864Z,3.20
2022-08-25T03:05:35.396Z,3.28
2022-08-25T03:08:10.015Z,3.42
2022-08-25T03:10:55.871Z,3.28
2022-08-25T03:13:25.594Z,2.97
2022-08-25T03:15:56.529Z,3.03
2022-08-25T03:18:25.257Z,3.10
2022-08-25T03:21:07.751Z,3.03
2022-08-25T03:23:37.650Z,3.15
2022-08-25T03:26:55.957Z,3.28
2022-08-25T03:29:47.800Z,3.17
2022-08-25T03:32:19.803Z,3.17
2022-08-25T03:34:49.098Z,3.20
2022-08-25T03:37:21.326Z,3.30
2022-08-25T03:39:53.492Z,3.00
2022-08-25T03:42:24.426Z,3.20
2022-08-25T03:45:05.467Z,3.30
2022-08-25T03:47:39.353Z,3.10
2022-08-25T03:50:09.313Z,3.10
2022-08-25T03:52:59.977Z,2.90
2022-08-25T03:58:19.324Z,3.20
2022-08-25T04:00:48.569Z,3.10
2022-08-25T04:03:28.785Z,3.25
2022-08-25T04:06:12.576Z,3.47
2022-08-25T04:09:16.599Z,3.13
2022-08-25T04:12:05.926Z,3.15
2022-08-25T04:15:08.861Z,3.08
2022-08-25T04:17:50.543Z,3.10
2022-08-25T04:20:25.753Z,3.05
2022-08-25T04:22:58.110Z,3.45
2022-08-25T04:25:39.251Z,3.25
2022-08-25T04:28:09.387Z,3.30
2022-08-25T04:31:05.789Z,2.97
2022-08-25T04:33:39.600Z,3.50
2022-08-25T04:36:12.223Z,2.90
2022-08-25T04:38:52.132Z,2.90
2022-08-25T04:41:23.518Z,3.10
2022-08-25T04:43:53.483Z,3.10
2022-08-25T04:46:29.301Z,3.45
2022-08-25T04:49:04.590Z,3.25
2022-08-25T04:51:45.305Z,3.47
2022-08-25T04:54:25.201Z,3.70
2022-08-25T04:59:29.520Z,2.95
2022-08-25T05:02:35.500Z,3.25
2022-08-25T05:05:52.034Z,3.15
2022-08-25T05:08:37.209Z,3.20
2022-08-25T05:11:15.944Z,2.88
2022-08-25T05:13:51.119Z,3.05
2022-08-25T05:16:24.166Z,3.00
2022-08-25T05:18:55.718Z,3.00
2022-08-25T05:21:36.363Z,3.28
2022-08-25T05:24:12.959Z,3.13
2022-08-25T05:26:53.674Z,2.95
2022-08-25T05:29:25.227Z,3.17
2022-08-25T05:31:57.396Z,3.25
2022-08-25T05:34:37.508Z,3.13
2022-08-25T05:37:12.024Z,3.22
2022-08-25T05:39:51.755Z,3.28
2022-08-25T05:42:21.544Z,2.92
2022-08-25T05:45:09.965Z,3.33
2022-08-25T05:48:15.199Z,3.13
2022-08-25T05:51:13.049Z,3.25
2022-08-25T05:54:13.616Z,3.30
2022-08-25T05:56:46.476Z,3.42
2022-08-25T05:59:17.803Z,3.15
2022-08-25T06:02:06.432Z,3.17
2022-08-25T06:04:41.204Z,3.40
2022-08-25T06:07:19.097Z,3.22
2022-08-25T06:09:54.139Z,3.13
2022-08-25T06:12:25.991Z,3.22
2022-08-25T06:14:58.726Z,3.10
2022-08-25T06:17:30.063Z,2.92
2022-08-25T06:20:00.348Z,3.38
2022-08-25T06:22:30.168Z,3.33
2022-08-25T06:25:00.932Z,3.30
2022-08-25T06:27:36.612Z,3.30
2022-08-25T06:30:13.979Z,3.30
2022-08-25T06:32:50.114Z,3.28
2022-08-25T06:35:25.516Z,3.30
2022-08-25T06:37:57.982Z,3.50
2022-08-25T06:40:29.846Z,3.08
2022-08-25T06:43:01.720Z,3.10
2022-08-25T06:45:33.965Z,2.97
2022-08-25T06:48:16.851Z,2.72
2022-08-25T06:50:53.304Z,3.05
2022-08-25T06:53:25.409Z,2.97
2022-08-25T06:56:04.646Z,2.95
2022-08-25T06:58:39.993Z,3.08
2022-08-25T07:01:26.130Z,3.08
2022-08-25T07:03:58.979Z,3.10
2022-08-25T07:06:49.519Z,3.38
2022-08-25T07:09:39.173Z,3.30
2022-08-25T07:12:32.574Z,2.97
2022-08-25T07:15:31.075Z,3.20
2022-08-25T07:18:23.688Z,3.15
2022-08-25T07:20:56.432Z,2.92
2022-08-25T07:23:31.378Z,3.10
2022-08-25T07:26:15.807Z,2.88
2022-08-25T07:31:35.289Z,2.80
2022-08-25T07:34:29.264Z,3.05
2022-08-25T07:37:27.593Z,3.30
2022-08-25T07:40:24.266Z,2.85
2022-08-25T07:42:57.442Z,3.15
2022-08-25T07:45:33.799Z,2.75
2022-08-25T07:48:15.890Z,2.95
2022-08-25T07:51:09.978Z,2.97
2022-08-25T07:53:49.644Z,2.67
2022-08-25T07:56:23.647Z,2.92
2022-08-25T07:58:53.671Z,3.20
2022-08-25T08:01:28.621Z,3.22
2022-08-25T08:04:08.990Z,3.30
2022-08-25T08:06:47.004Z,3.28
2022-08-25T08:09:17.540Z,3.33
2022-08-25T08:11:53.741Z,3.10
2022-08-25T08:14:28.645Z,3.55
2022-08-25T08:17:09.629Z,3.30
2022-08-25T08:19:52.096Z,3.15
2022-08-25T08:22:22.244Z,3.25
2022-08-25T08:24:56.199Z,3.30
2022-08-25T08:27:32.716Z,3.42
2022-08-25T08:30:04.936Z,3.65
2022-08-25T08:33:06.419Z,3.70
2022-08-25T08:35:35.718Z,3.28
2022-08-25T08:38:14.953Z,3.63
2022-08-25T08:41:28.177Z,4.00
2022-08-25T08:44:07.691Z,3.58
2022-08-25T08:46:57.129Z,3.15
2022-08-25T08:49:57.557Z,3.08
2022-08-25T08:52:52.021Z,3.40
2022-08-25T08:55:44.442Z,3.17
2022-08-25T08:58:39.094Z,3.00
2022-08-25T09:01:18.149Z,3.25
2022-08-25T09:04:00.984Z,3.30
2022-08-25T09:06:56.020Z,3.20
2022-08-25T09:09:35.598Z,2.88
2022-08-25T09:12:22.024Z,3.17
2022-08-25T09:19:03.900Z,3.22
2022-08-25T09:22:01.416Z,2.92
2022-08-25T09:24:48.359Z,3.08
2022-08-25T09:27:29.285Z,3.10
2022-08-25T09:30:17.312Z,3.20
2022-08-25T09:32:55.961Z,3.20
2022-08-25T09:35:27.945Z,3.40
2022-08-25T09:38:16.418Z,3.33
2022-08-25T09:41:19.457Z,3.20
2022-08-25T09:44:03.946Z,3.60
2022-08-25T09:46:38.026Z,3.35
2022-08-25T09:49:17.472Z,3.20
2022-08-25T09:51:49.862Z,3.25
2022-08-25T09:54:36.341Z,3.25
2022-08-25T09:58:13.325Z,3.65
2022-08-25T10:00:49.496Z,3.13
2022-08-25T10:03:26.407Z,3.22
2022-08-25T10:06:13.026Z,3.30
2022-08-25T10:09:00.604Z,3.28
2022-08-25T10:11:57.729Z,3.22
2022-08-25T10:14:31.510Z,3.10
2022-08-25T10:17:17.569Z,3.35
2022-08-25T10:20:17.931Z,3.08
2022-08-25T10:27:00.688Z,3.20
2022-08-25T10:29:32.638Z,3.38
2022-08-25T10:32:13.361Z,3.35
2022-08-25T10:34:57.117Z,3.13
2022-08-25T10:37:52.496Z,3.08
2022-08-25T10:40:29.581Z,3.20
2022-08-25T10:43:20.539Z,3.47
2022-08-25T10:46:09.744Z,2.90
2022-08-25T10:49:24.880Z,3.50
2022-08-25T10:52:06.267Z,3.13
2022-08-25T10:54:57.284Z,3.03
2022-08-25T10:58:05.768Z,2.80
2022-08-25T11:00:49.355Z,2.67
2022-08-25T11:03:27.273Z,3.00
2022-08-25T11:06:15.669Z,3.17
2022-08-25T11:08:58.037Z,2.90
2022-08-25T11:11:45.906Z,3.00
2022-08-25T11:14:42.495Z,3.20
2022-08-25T11:17:37.593Z,3.10
2022-08-25T11:20:27.379Z,3.40
2022-08-25T11:23:01.874Z,3.28
2022-08-25T11:25:47.624Z,3.38
2022-08-25T11:28:19.443Z,3.33
2022-08-25T11:31:01.099Z,3.65
2022-08-25T11:33:33.733Z,3.45
2022-08-25T11:36:39.941Z,3.50
2022-08-25T11:39:26.592Z,3.40
2022-08-25T11:42:05.953Z,3.72
2022-08-25T11:44:53.085Z,3.85
2022-08-25T11:47:38.863Z,3.40
2022-08-25T11:50:50.117Z,3.60
2022-08-25T11:53:28.985Z,3.47
2022-08-25T11:56:08.379Z,3.90
2022-08-25T11:58:42.505Z,4.03
2022-08-25T12:01:36.085Z,3.72
2022-08-25T12:04:17.106Z,3.67
2022-08-25T12:07:13.960Z,3.90
2022-08-25T12:09:58.654Z,3.67
2022-08-25T12:12:36.409Z,3.92
2022-08-25T12:15:17.713Z,3.50
2022-08-25T12:18:11.379Z,3.67
2022-08-25T12:20:56.201Z,3.60
2022-08-25T12:23:37.581Z,3.45
2022-08-25T12:26:32.617Z,3.60
2022-08-25T12:29:22.414Z,3.67
2022-08-25T12:32:04.544Z,3.55
2022-08-25T12:35:18.065Z,3.50
2022-08-25T12:38:00.894Z,3.70
2022-08-25T12:40:52.853Z,3.67
2022-08-25T12:43:37.480Z,3.97
2022-08-25T12:46:30.510Z,4.05
2022-08-25T12:49:17.443Z,4.20
2022-08-25T12:52:16.988Z,4.10
2022-08-25T12:54:56.243Z,3.92
2022-08-25T12:57:40.693Z,4.00
2022-08-25T13:00:32.611Z,3.88
2022-08-25T13:03:20.726Z,3.90
2022-08-25T13:06:10.722Z,3.85
2022-08-25T13:09:01.909Z,3.83
2022-08-25T13:11:40.796Z,4.05
2022-08-25T13:14:21.760Z,3.70
2022-08-25T13:17:00.192Z,4.05
2022-08-25T13:19:35.059Z,3.75
2022-08-25T13:22:16.410Z,4.40
2022-08-25T13:24:52.362Z,4.00
2022-08-25T13:27:27.504Z,3.92
2022-08-25T13:30:03.923Z,3.92
2022-08-25T13:32:36.252Z,4.00
2022-08-25T13:35:17.633Z,3.97
2022-08-25T13:37:52.212Z,4.03
2022-08-25T13:40:26.275Z,4.18
2022-08-25T13:43:05.951Z,4.15
2022-08-25T13:45:40.232Z,3.95
2022-08-25T13:48:33.892Z,4.45
2022-08-25T13:51:14.349Z,3.88
2022-08-25T13:53:50.964Z,4.10
2022-08-25T13:56:38.831Z,4.25
2022-08-25T13:59:28.032Z,3.90
2022-08-25T14:01:57.683Z,4.20
2022-08-25T14:04:51.047Z,3.90
2022-08-25T14:07:34.379Z,4.22
2022-08-25T14:10:16.486Z,4.03
2022-08-25T14:12:49.869Z,3.83
2022-08-25T14:15:23.932Z,4.03
2022-08-25T14:18:08.614Z,4.25
2022-08-25T14:20:39.716Z,4.10
2022-08-25T14:23:23.234Z,4.20
2022-08-25T14:25:56.318Z,4.13
2022-08-25T14:28:36.848Z,4.30
2022-08-25T14:31:20.817Z,3.92
2022-08-25T14:34:01.854Z,4.28
2022-08-25T14:36:36.416Z,4.38
2022-08-25T14:39:18.518Z,4.00
2022-08-25T14:41:54.025Z,4.10
2022-08-25T14:44:27.826Z,4.35
2022-08-25T14:46:57.817Z,4.40
2022-08-25T14:49:34.406Z,3.88
2022-08-25T14:53:01.926Z,4.55
2022-08-25T14:55:36.888Z,3.63
2022-08-25T14:58:08.281Z,4.32
2022-08-25T15:00:49.916Z,4.35
2022-08-25T15:05:53.748Z,3.92
2022-08-25T15:08:44.030Z,4.03
2022-08-25T15:11:19.646Z,4.60
2022-08-25T15:13:50.362Z,4.35
2022-08-25T15:16:33.797Z,4.80
2022-08-25T15:19:17.469Z,4.60
2022-08-25T15:21:46.629Z,4.50
2022-08-25T15:24:25.475Z,4.80
2022-08-25T15:26:57.825Z,4.60
2022-08-25T15:29:32.228Z,4.72
2022-08-25T15:32:02.377Z,4.60
2022-08-25T15:34:33.565Z,4.68
2022-08-25T15:37:14.075Z,4.43
2022-08-25T15:39:49.512Z,4.38
2022-08-25T15:42:21.051Z,4.75
2022-08-25T15:44:53.265Z,4.78
2022-08-25T15:47:26.853Z,4.40
2022-08-25T15:50:06.667Z,4.55
2022-08-25T15:52:46.076Z,4.60
2022-08-25T15:55:21.603Z,4.15
2022-08-25T15:57:55.223Z,4.50
2022-08-25T16:00:34.275Z,4.32
2022-08-25T16:03:14.878Z,4.68
2022-08-25T16:05:50.350Z,4.18
2022-08-25T16:08:25.077Z,4.55
2022-08-25T16:11:01.529Z,4.30
2022-08-25T16:13:31.972Z,4.35
2022-08-25T16:16:01.688Z,4.72
2022-08-25T16:18:37.396Z,4.97
2022-08-25T16:21:20.177Z,4.75
2022-08-25T16:23:49.983Z,4.18
2022-08-25T16:26:22.050Z,4.28
2022-08-25T16:28:54.186Z,4.07
2022-08-25T16:31:26.753Z,4.60
2022-08-25T16:33:58.378Z,4.30
2022-08-25T16:37:04.510Z,4.18
2022-08-25T16:39:53.957Z,4.00
2022-08-25T16:42:40.905Z,4.35
2022-08-25T16:45:20.858Z,4.67
2022-08-25T16:47:52.621Z,4.15
2022-08-25T16:50:24.637Z,4.75
2022-08-25T16:53:17.576Z,4.53
2022-08-25T16:55:48.581Z,4.57
2022-08-25T16:58:22.264Z,4.60
2022-08-25T17:00:56.609Z,4.30
2022-08-25T17:03:34.005Z,3.95
2022-08-25T17:06:19.392Z,4.10
2022-08-25T17:08:50.051Z,4.10
2022-08-25T17:11:32.797Z,4.20
2022-08-25T17:14:10.882Z,4.38
2022-08-25T17:16:58.172Z,4.18
2022-08-25T17:19:32.823Z,4.20
2022-08-25T17:22:02.116Z,4.63
2022-08-25T17:24:33.604Z,4.30
2022-08-25T17:27:04.420Z,4.22
2022-08-25T17:29:36.743Z,4.13
2022-08-25T17:32:08.363Z,4.28
2022-08-25T17:34:48.277Z,3.92
2022-08-25T17:37:18.590Z,4.20
2022-08-25T17:39:50.621Z,4.30
2022-08-25T17:42:36.658Z,4.07
2022-08-25T17:45:10.397Z,4.00
2022-08-25T17:47:50.158Z,4.15
2022-08-25T17:50:33.099Z,4.13
2022-08-25T17:53:21.673Z,4.18
2022-08-25T17:56:27.265Z,4.05
2022-08-25T17:59:03.999Z,4.07
2022-08-25T18:01:40.790Z,4.20
2022-08-25T18:04:29.692Z,4.47
2022-08-25T18:07:28.313Z,4.13
2022-08-25T18:10:04.959Z,4.45
2022-08-25T18:12:36.315Z,4.15
2022-08-25T18:15:32.836Z,3.85
2022-08-25T18:18:08.708Z,3.92
2022-08-25T18:21:22.544Z,4.18
2022-08-25T18:23:58.243Z,4.20
2022-08-25T18:27:33.081Z,4.00
2022-08-25T18:30:33.930Z,4.00
2022-08-25T18:33:24.852Z,4.05
2022-08-25T18:36:08.235Z,3.83
2022-08-25T18:39:34.830Z,3.67
2022-08-25T18:42:32.470Z,3.72
2022-08-25T18:45:08.742Z,3.97
2022-08-25T18:48:05.446Z,3.92
2022-08-25T18:50:53.270Z,4.13
2022-08-25T18:53:30.474Z,4.15
2022-08-25T18:56:28.532Z,4.28
2022-08-25T18:59:00.180Z,4.15
2022-08-25T19:01:30.091Z,4.35
2022-08-25T19:04:02.322Z,4.13
2022-08-25T19:06:43.747Z,4.43
2022-08-25T19:09:25.011Z,4.13
2022-08-25T19:11:57.886Z,4.00
2022-08-25T19:14:48.626Z,4.28
2022-08-25T19:17:29.028Z,4.30
2022-08-25T19:20:13.203Z,4.15
2022-08-25T19:22:48.035Z,4.07
2022-08-25T19:25:46.720Z,4.25
2022-08-25T19:28:32.681Z,4.25
2022-08-25T19:31:27.923Z,4.47
2022-08-25T19:34:24.007Z,4.63
2022-08-25T19:37:00.872Z,4.50
2022-08-25T19:39:32.946Z,4.47
2022-08-25T19:42:36.792Z,4.20
2022-08-25T19:46:24.342Z,3.75
2022-08-25T19:49:04.858Z,4.03
2022-08-25T19:52:30.541Z,3.80
2022-08-25T19:55:53.027Z,3.50
2022-08-25T19:58:26.073Z,3.83
2022-08-25T20:01:23.918Z,3.83
2022-08-25T20:04:00.792Z,3.42
2022-08-25T20:06:41.422Z,3.90
2022-08-25T20:09:39.045Z,3.55
2022-08-25T20:12:22.279Z,3.53
2022-08-25T20:14:57.433Z,3.42
2022-08-25T20:18:02.745Z,3.50
2022-08-25T20:24:25.147Z,3.58
2022-08-25T20:27:02.355Z,3.50
2022-08-25T20:29:40.652Z,3.30
2022-08-25T20:36:54.847Z,3.80
2022-08-25T20:40:29.969Z,3.30
2022-08-25T20:56:57.781Z,3.42
2022-08-25T21:04:30.481Z,4.25
2022-08-25T21:07:08.830Z,4.25
2022-08-25T21:14:01.296Z,4.10
2022-08-25T21:20:26.154Z,3.75
2022-08-25T21:23:45.664Z,4.13
2022-08-25T21:26:34.143Z,4.22
2022-08-25T21:33:02.256Z,3.75
2022-08-25T21:35:48.537Z,3.88
2022-08-25T21:38:21.829Z,4.00
2022-08-25T21:41:39.424Z,4.18
2022-08-25T21:44:32.920Z,4.03
2022-08-25T21:49:22.303Z,3.60
2022-08-25T21:52:09.051Z,3.78
2022-08-25T21:54:46.343Z,3.83
2022-08-25T22:51:38.270Z,3.88
2022-08-25T22:56:33.685Z,3.63
2022-08-25T23:00:26.438Z,3.72
2022-08-25T23:07:10.911Z,3.75
2022-08-25T23:15:18.275Z,3.58
2022-08-25T23:26:58.883Z,3.42
2022-08-25T23:30:10.047Z,4.00
2022-08-25T23:33:43.989Z,4.10
2022-08-25T23:37:33.283Z,3.78
2022-08-25T23:40:41.165Z,3.88
2022-08-25T23:52:10.034Z,3.95
2022-08-25T23:55:22.552Z,4.13
2022-08-25T23:58:44.042Z,3.78
